Terminal Aerodrome Forecast
Issued by NWS Lake Charles, LA

Home | Current Version | Previous Version | Text Only | Print | Product List | Glossary On
Versions: 1 2 3 4 5 6 7 8 9 10 11 12 13 14 15 16 17 18 19
193
FTUS44 KLCH 140521
TAFARA
TAF
KARA 140521Z 1406/1506 14006KT P6SM SCT050
     FM141400 14010KT P6SM SCT050 BKN150
     FM141900 16014G19KT P6SM BKN050
     FM150000 14009KT P6SM OVC025=

USA.gov is the U.S. government's official web portal to all federal, state and local government web resources and services.